Latest Weather Observations for Cape Willoughby

IDS60801

Issued at 4:01 pm CST Thursday 26 May 2016 (issued every 30 minutes, with the page automatically refreshed every 10 minutes)

About weather observations | Map of weather stations | Latest weather observations for SA | Other Formats
Station Details ID: 022803 Name: CAPE WILLOUGHBY Lat: -35.84 Lon: 138.13 Height: 55.0 m
Data from the previous 72 hours. | See also: Recent months at Cape Willoughby
Date/Time
CST
Temp
°C
App
Temp
°C
Dew
Point
Rel
Hum
%
Delta-T
°C
Wind Press
QNH
hPa
Press
MSL
hPa
Rain
since 9 am
mm
Dir
 
Spd
km/h
Gust
km/h
Spd
kts
Gust
kts
26/04:00pm 14.8 11.1 9.6 71 2.7 SW 19 24 10 13 1009.4 1009.3 0.4
26/03:30pm 15.3 11.5 9.7 69 2.9 WSW 20 30 11 16 1009.3 1009.2 0.4
26/03:00pm 15.4 11.5 9.5 68 3.1 SW 20 30 11 16 1009.0 1008.9 0.4
26/02:30pm 15.1 10.8 9.5 69 2.9 SW 22 28 12 15 1009.0 1008.9 0.2
26/02:00pm 15.3 11.0 9.4 68 3.0 SW 22 30 12 16 1009.0 1008.9 0.2
26/01:30pm 15.5 12.2 9.4 67 3.2 SW 17 24 9 13 1009.1 1009.0 0.2
26/01:00pm 15.4 12.2 11.4 77 2.2 W 19 26 10 14 1009.4 1009.3 0.2
26/12:30pm 13.3 9.3 10.3 82 1.6 SSW 22 44 12 24 1009.3 1009.2 0.2
26/12:00pm 15.6 11.7 9.5 67 3.2 WSW 20 30 11 16 1009.4 1009.3 0.0
26/11:30am 15.1 11.1 9.0 67 3.1 WSW 20 28 11 15 1009.4 1009.3 0.0
26/11:00am 15.2 11.8 9.3 68 3.0 SW 17 26 9 14 1009.6 1009.5 0.0
26/10:30am 15.0 11.4 9.8 71 2.7 WSW 19 26 10 14 1009.6 1009.5 0.0
26/10:00am 14.5 11.7 10.1 75 2.3 W 15 20 8 11 1009.6 1009.5 0.0
26/09:30am 13.6 10.1 11.0 84 1.4 W 20 28 11 15 1009.4 1009.3 0.0
26/09:00am 13.0 9.6 10.5 85 1.3 W 19 24 10 13 1009.2 1009.1 5.4
26/08:30am 12.0 8.7 9.6 85 1.2 W 17 22 9 12 1009.0 1008.9 5.4
26/08:00am 11.5 8.2 9.6 88 1.0 W 17 22 9 12 1008.9 1008.8 5.4
26/07:30am 10.7 6.8 8.8 88 0.9 WNW 19 22 10 12 1008.7 1008.6 5.4
26/07:00am 11.6 7.6 9.2 85 1.2 W 20 24 11 13 1008.5 1008.4 5.4
26/06:30am 11.7 8.3 9.3 85 1.2 WSW 17 22 9 12 1008.2 1008.1 5.4
26/06:00am 12.0 7.8 9.6 85 1.2 WSW 22 28 12 15 1008.0 1007.9 5.4
26/05:30am 12.1 7.7 10.3 89 0.9 W 24 32 13 17 1007.9 1007.8 5.2
26/05:00am 12.2 9.8 9.9 86 1.2 W 13 17 7 9 1007.7 1007.6 5.2
26/04:30am 12.1 9.5 9.5 84 1.3 W 13 15 7 8 1007.5 1007.4 5.2
26/04:00am 12.2 9.3 9.8 85 1.2 WSW 15 22 8 12 1007.4 1007.3 5.2
26/03:30am 13.7 10.2 10.3 80 1.8 SSW 19 24 10 13 1007.2 1007.1 5.0
26/03:00am 13.6 11.0 10.8 83 1.5 SSW 15 19 8 10 1007.2 1007.1 5.0
26/02:30am 13.5 11.0 11.0 85 1.3 SSW 15 19 8 10 1007.4 1007.3 5.0
26/02:00am 13.3 12.0 12.5 95 0.4 S 11 13 6 7 1007.0 1006.9 5.0
26/01:30am 12.8 10.5 11.9 94 0.5 SSW 15 22 8 12 1007.1 1007.0 4.6
26/01:00am 13.4 8.3 11.8 90 0.9 S 30 35 16 19 1006.7 1006.6 2.0
26/12:57am 13.5 8.8 11.9 90 0.9 S 28 35 15 19 1006.8 1006.7 2.0
26/12:30am 13.2 11.7 10.7 85 1.3 WSW 9 11 5 6 1007.0 1006.9 2.0
26/12:00am 13.5 11.6 10.5 82 1.6 SW 11 13 6 7 1007.2 1007.1 2.0
 
Date/Time
CST
Temp
°C
App
Temp
°C
Dew
Point
Rel
Hum
%
Delta-T
°C
Wind Press
QNH
hPa
Press
MSL
hPa
Rain
since 9 am
mm
Dir
 
Spd
km/h
Gust
km/h
Spd
kts
Gust
kts
25/11:30pm 14.2 11.8 10.0 76 2.2 SSW 13 17 7 9 1007.4 1007.3 2.0
25/11:00pm 14.3 12.4 10.5 78 2.0 S 11 17 6 9 1007.1 1007.0 2.0
25/10:30pm 14.2 11.9 10.6 79 1.9 S 13 19 7 10 1007.2 1007.1 2.0
25/10:00pm 13.9 12.2 11.1 83 1.5 SSW 11 15 6 8 1007.2 1007.1 2.0
25/09:30pm 13.6 11.7 11.8 89 1.0 SW 13 17 7 9 1006.9 1006.8 2.0
25/09:00pm 13.8 11.5 11.8 88 1.1 SW 15 20 8 11 1006.9 1006.8 2.0
25/08:30pm 14.2 11.3 12.8 91 0.8 SSW 20 24 11 13 1006.5 1006.4 2.0
25/08:00pm 14.2 10.9 12.9 92 0.7 SSW 22 26 12 14 1006.7 1006.6 2.0
25/07:30pm 14.3 11.1 13.0 92 0.7 SSW 22 28 12 15 1006.8 1006.7 2.0
25/07:00pm 14.4 10.9 13.4 94 0.6 SW 24 28 13 15 1006.5 1006.4 2.0
25/06:30pm 14.3 12.1 13.3 94 0.6 WSW 17 20 9 11 1006.4 1006.3 2.0
25/06:00pm 14.5 12.0 13.5 94 0.6 SW 19 24 10 13 1005.9 1005.8 2.0
25/05:30pm 14.5 11.1 13.7 95 0.4 WNW 24 30 13 16 1005.6 1005.5 2.0
25/05:00pm 14.7 10.2 13.9 95 0.4 NW 30 41 16 22 1005.7 1005.6 1.4
25/04:30pm 14.8 10.3 13.8 94 0.6 NNW 30 39 16 21 1005.5 1005.4 1.2
25/04:00pm 14.8 9.7 13.7 93 0.6 NNW 33 43 18 23 1005.4 1005.3 0.6
25/03:30pm 14.9 9.8 13.6 92 0.7 NW 33 41 18 22 1005.5 1005.4 0.2
25/03:00pm 14.9 9.0 13.6 92 0.7 NNW 37 48 20 26 1005.4 1005.3 0.2
25/02:30pm 14.6 6.9 13.3 92 0.7 NNW 46 63 25 34 1005.0 1004.9 0.2
25/02:00pm 14.7 5.8 13.1 90 0.9 NNW 52 65 28 35 1005.5 1005.4 0.0
25/01:30pm 14.7 7.2 12.6 87 1.2 NNW 44 57 24 31 1005.6 1005.5 0.0
25/01:15pm 14.7 6.0 12.6 87 1.2 NNW 50 69 27 37 1005.8 1005.7 0.0
25/01:00pm 14.8 5.3 12.3 85 1.4 NNW 54 67 29 36 1005.8 1005.7 0.0
25/12:30pm 14.7 4.6 12.2 85 1.4 NNW 57 70 31 38 1006.3 1006.2 0.0
25/12:00pm 14.7 3.8 12.2 85 1.4 NNW 61 76 33 41 1006.2 1006.1 0.0
25/11:30am 14.4 2.2 11.7 84 1.5 NNW 67 76 36 41 1006.4 1006.3 0.0
25/11:00am 14.3 1.6 11.8 85 1.3 NNW 70 82 38 44 1007.4 1007.3 0.0
25/10:30am 14.3 1.5 11.5 83 1.5 NNW 70 82 38 44 1007.7 1007.6 0.0
25/10:00am 14.4 1.8 11.7 84 1.5 NNW 69 80 37 43 1008.0 1007.9 0.0
25/09:30am 14.2 2.7 11.5 84 1.4 NNW 63 76 34 41 1008.6 1008.5 0.0
25/09:00am 14.3 2.4 11.5 83 1.5 NNW 65 76 35 41 1008.8 1008.7 -
25/08:30am 13.9 1.9 11.2 84 1.4 N 65 74 35 40 1008.7 1008.6 -
25/08:00am 14.4 3.1 11.0 80 1.8 NNW 61 74 33 40 1009.5 1009.4 -
25/07:30am 13.9 1.9 11.1 83 1.5 NNW 65 76 35 41 1009.1 1009.0 -
25/07:00am 14.7 4.6 12.2 85 1.4 NNW 57 69 31 37 1009.0 1008.9 -
25/06:30am 14.1 4.3 11.6 85 1.3 N 54 61 29 33 1009.0 1008.9 -
25/06:00am 14.4 4.1 11.7 84 1.5 NNW 57 70 31 38 1009.2 1009.1 -
25/05:30am 14.4 6.2 11.6 83 1.5 NNW 46 57 25 31 1009.6 1009.5 -
25/05:00am 14.1 3.0 11.4 84 1.4 NNW 61 70 33 38 1009.7 1009.6 -
25/04:30am 14.3 2.2 10.7 79 1.9 NNW 65 78 35 42 1009.7 1009.6 -
25/04:00am 14.9 2.2 9.9 72 2.6 NNW 67 78 36 42 1010.1 1010.0 -
25/03:30am 15.8 4.5 9.5 66 3.3 N 59 72 32 39 1009.5 1009.4 -
25/03:00am 16.5 5.0 8.5 59 4.1 N 59 70 32 38 1009.9 1009.8 -
25/02:30am 16.7 3.1 7.9 56 4.5 NNW 69 83 37 45 1010.4 1010.3 -
25/02:00am 17.6 5.4 5.5 45 5.9 NNW 59 85 32 46 1010.2 1010.1 -
25/01:47am 17.0 6.7 6.5 50 5.2 NNW 50 69 27 37 1010.7 1010.7 -
25/01:30am 16.7 5.1 6.5 51 5.0 NNW 57 69 31 37 1010.6 1010.6 -
25/01:00am 17.2 5.7 6.4 49 5.3 NNW 56 72 30 39 1010.7 1010.7 -
25/12:30am 17.4 6.4 6.6 49 5.4 NNW 54 65 29 35 1011.4 1011.4 -
25/12:00am 17.0 6.5 7.4 53 4.8 N 52 63 28 34 1011.4 1011.4 -
 
Date/Time
CST
Temp
°C
App
Temp
°C
Dew
Point
Rel
Hum
%
Delta-T
°C
Wind Press
QNH
hPa
Press
MSL
hPa
Rain
since 9 am
mm
Dir
 
Spd
km/h
Gust
km/h
Spd
kts
Gust
kts
24/11:30pm 16.9 5.9 8.6 58 4.3 N 56 67 30 36 1011.6 1011.6 -
24/11:28pm 16.8 6.3 8.8 59 4.1 N 54 65 29 35 1011.7 1011.7 -
24/11:00pm 16.6 9.1 10.7 68 3.2 N 41 46 22 25 1012.9 1012.9 -
24/10:30pm 17.2 8.8 9.1 59 4.2 N 43 52 23 28 1013.0 1013.0 -
24/10:00pm 16.9 9.7 9.3 61 4.0 N 37 41 20 22 1013.2 1013.2 -
24/09:30pm 17.0 9.5 7.9 55 4.6 N 37 43 20 23 1013.9 1013.9 0.0
24/09:00pm 16.3 11.6 10.6 69 3.0 NNE 26 30 14 16 1014.3 1014.3 0.0
24/08:30pm 16.4 11.6 10.3 67 3.2 NNE 26 30 14 16 1014.9 1014.9 0.0
24/08:00pm 16.8 11.0 9.5 62 3.8 N 30 33 16 18 1015.2 1015.2 0.0
24/07:30pm 16.8 11.0 9.5 62 3.8 N 30 32 16 17 1015.4 1015.4 0.0
24/07:00pm 16.7 11.9 10.3 66 3.4 N 26 32 14 17 1015.5 1015.5 0.0
24/06:30pm 16.9 11.5 9.6 62 3.8 N 28 33 15 18 1015.6 1015.6 0.0
24/06:00pm 16.8 11.9 10.0 64 3.6 N 26 32 14 17 1015.8 1015.8 0.0
24/05:30pm 16.8 11.5 10.0 64 3.6 N 28 32 15 17 1015.8 1015.8 0.0
24/05:00pm 16.7 11.6 10.5 67 3.3 N 28 33 15 18 1016.0 1016.0 0.0
24/04:30pm 16.9 12.2 10.5 66 3.4 N 26 32 14 17 1016.3 1016.3 0.0
24/04:00pm 17.3 13.4 12.0 71 2.9 N 24 28 13 15 1016.7 1016.7 0.0
24/03:30pm 17.3 12.2 11.8 70 3.0 N 30 35 16 19 1016.7 1016.7 0.0
24/03:00pm 17.5 11.8 11.8 69 3.1 N 33 39 18 21 1017.0 1017.0 0.0
24/02:30pm 17.7 12.0 11.9 69 3.2 N 33 39 18 21 1017.4 1017.4 0.0
24/02:00pm 18.1 13.3 13.0 72 2.9 N 30 35 16 19 1017.8 1017.8 0.0
24/01:30pm 18.0 12.6 12.7 71 3.0 N 33 37 18 20 1018.1 1018.1 0.0
24/01:00pm 18.0 12.6 12.7 71 3.0 N 33 39 18 21 1018.7 1018.7 0.0
24/12:30pm 17.9 12.8 13.2 74 2.6 N 32 37 17 20 1019.1 1019.1 0.0
24/12:00pm 17.5 12.3 13.4 77 2.3 N 33 41 18 22 1019.8 1019.8 0.0
24/11:30am 16.9 11.0 13.6 81 1.9 N 37 43 20 23 1020.2 1020.1 0.0
24/11:00am 17.5 11.3 13.8 79 2.1 N 39 43 21 23 1020.9 1020.8 0.0
24/10:30am 16.2 10.0 12.6 79 2.0 NNW 37 43 20 23 1021.3 1021.2 0.0
24/10:00am 16.5 10.5 13.2 81 1.8 NNW 37 44 20 24 1021.5 1021.4 0.0
24/09:30am 16.1 11.5 13.4 84 1.5 NNW 30 37 16 20 1022.1 1022.0 0.0
24/09:00am 15.4 10.7 13.1 86 1.3 NNW 30 35 16 19 1022.3 1022.2 0.0
24/08:30am 15.0 12.8 13.2 89 1.0 NNW 17 28 9 15 1022.5 1022.4 0.0
24/08:00am 14.3 12.6 12.5 89 1.0 NW 13 19 7 10 1022.6 1022.5 0.0
24/07:30am 14.2 11.3 12.4 89 1.0 NW 19 24 10 13 1022.2 1022.1 0.0
24/07:00am 14.0 11.0 12.0 88 1.1 NW 19 24 10 13 1022.0 1021.9 0.0
24/06:30am 13.8 11.5 11.8 88 1.1 NW 15 19 8 10 1021.8 1021.7 0.0
24/06:00am 13.9 11.3 11.9 88 1.1 NW 17 20 9 11 1021.7 1021.6 0.0
24/05:30am 14.0 10.8 12.0 88 1.1 NW 20 24 11 13 1021.3 1021.2 0.0
24/05:00am 14.7 11.0 12.6 87 1.2 NNW 24 32 13 17 1021.2 1021.1 0.0
24/04:30am 14.2 11.2 12.4 89 1.0 NW 20 28 11 15 1021.1 1021.0 0.0
24/04:00am 13.9 11.3 12.1 89 1.0 NW 17 20 9 11 1021.1 1021.0 0.0
24/03:30am 13.6 10.5 11.7 88 1.0 NW 19 20 10 11 1021.2 1021.1 0.0
24/03:00am 13.0 10.0 10.7 86 1.2 NW 17 19 9 10 1021.4 1021.3 0.0
24/02:30am 13.3 10.4 11.0 86 1.2 WNW 17 19 9 10 1021.5 1021.4 0.0
24/02:00am 13.5 11.4 11.0 85 1.3 NW 13 17 7 9 1021.6 1021.5 0.0
24/01:30am 13.2 11.9 11.3 88 1.0 NNW 9 11 5 6 1021.9 1021.8 0.0
24/01:00am 12.6 11.2 10.8 89 0.9 NNW 9 13 5 7 1022.3 1022.2 0.0
24/12:30am 12.6 11.5 10.7 88 1.0 NNW 7 11 4 6 1022.6 1022.5 0.0
24/12:00am 13.1 10.9 10.8 86 1.2 W 13 17 7 9 1022.8 1022.7 0.0
 
Date/Time
CST
Temp
°C
App
Temp
°C
Dew
Point
Rel
Hum
%
Delta-T
°C
Wind Press
QNH
hPa
Press
MSL
hPa
Rain
since 9 am
mm
Dir
 
Spd
km/h
Gust
km/h
Spd
kts
Gust
kts
23/11:30pm 12.7 11.2 10.4 86 1.2 WNW 9 15 5 8 1022.9 1022.8 0.0
23/11:00pm 12.8 10.8 10.3 85 1.3 NW 11 15 6 8 1023.0 1022.9 0.0
23/10:30pm 13.0 10.3 10.4 84 1.3 WNW 15 19 8 10 1023.0 1022.9 0.0
23/10:00pm 13.6 9.6 10.6 82 1.6 WNW 22 28 12 15 1023.0 1022.9 0.0
23/09:30pm 13.7 9.8 10.7 82 1.6 W 22 28 12 15 1023.0 1022.9 0.0
23/09:00pm 13.6 9.3 10.8 83 1.5 WNW 24 30 13 16 1023.3 1023.2 0.0
23/08:30pm 14.1 10.8 10.9 81 1.7 WNW 19 22 10 12 1023.5 1023.4 0.0
23/08:00pm 13.9 10.5 10.5 80 1.8 WNW 19 22 10 12 1023.3 1023.2 0.0
23/07:30pm 13.9 10.6 10.9 82 1.6 WNW 19 20 10 11 1023.2 1023.1 0.0
23/07:00pm 13.9 11.0 11.1 83 1.5 WNW 17 19 9 10 1023.1 1023.0 0.0
23/06:30pm 14.5 12.0 11.1 80 1.8 W 15 17 8 9 1022.9 1022.8 0.0
23/06:00pm 14.9 12.9 11.5 80 1.8 W 13 15 7 8 1022.5 1022.4 0.0
23/05:30pm 14.9 12.8 11.3 79 1.9 WSW 13 15 7 8 1022.1 1022.0 0.0
23/05:00pm 15.4 13.0 11.4 77 2.2 W 15 17 8 9 1022.0 1021.9 0.0
23/04:30pm 15.9 13.5 11.3 74 2.5 WSW 15 19 8 10 1021.9 1021.8 0.0

Other Formats:

Comma delimited format used in spreadsheet applications
http://www.bom.gov.au/fwo/IDS60801/IDS60801.94822.axf

JavaScript Object Notation format (JSON) in row-major order
http://www.bom.gov.au/fwo/IDS60801/IDS60801.94822.json